createdAt,value
2023-01-08T00:01:25.433Z,1.94
2023-01-08T00:04:25.461Z,1.90
2023-01-08T00:07:25.431Z,1.90
2023-01-08T00:10:25.497Z,1.96
2023-01-08T00:13:25.403Z,2.01
2023-01-08T00:16:28.479Z,2.05
2023-01-08T00:19:28.460Z,1.92
2023-01-08T00:22:28.467Z,2.03
2023-01-08T00:25:28.471Z,1.95
2023-01-08T00:28:28.425Z,1.92
2023-01-08T00:31:28.461Z,1.89
2023-01-08T00:34:28.414Z,1.93
2023-01-08T00:37:28.458Z,1.86
2023-01-08T00:40:28.445Z,1.84
2023-01-08T00:43:28.454Z,1.81
2023-01-08T00:46:28.442Z,1.77
2023-01-08T00:49:29.414Z,1.74
2023-01-08T00:52:29.453Z,1.70
2023-01-08T00:55:29.426Z,1.69
2023-01-08T00:58:29.449Z,1.68
2023-01-08T01:01:29.573Z,1.63
2023-01-08T01:04:29.415Z,1.62
2023-01-08T01:07:29.469Z,1.61
2023-01-08T01:10:30.425Z,1.59
2023-01-08T01:13:30.427Z,1.52
2023-01-08T01:16:30.541Z,1.59
2023-01-08T01:19:30.428Z,1.56
2023-01-08T01:22:30.430Z,1.55
2023-01-08T01:25:30.433Z,1.49
2023-01-08T01:28:30.457Z,1.50
2023-01-08T01:31:30.430Z,1.45
2023-01-08T01:34:30.450Z,1.40
2023-01-08T01:37:30.429Z,1.40
2023-01-08T01:40:30.457Z,1.33
2023-01-08T01:43:49.418Z,1.35
2023-01-08T01:46:49.432Z,1.32
2023-01-08T01:49:49.439Z,1.30
2023-01-08T01:52:53.461Z,1.24
2023-01-08T01:55:56.456Z,1.23
2023-01-08T01:58:56.432Z,1.17
2023-01-08T02:01:56.571Z,1.06
2023-01-08T02:04:56.409Z,1.02
2023-01-08T02:08:20.416Z,1.07
2023-01-08T02:11:22.401Z,1.05
2023-01-08T02:14:31.410Z,1.01
2023-01-08T02:17:38.407Z,0.91
2023-01-08T02:20:57.427Z,0.92
2023-01-08T02:24:03.439Z,0.90
2023-01-08T02:27:06.455Z,0.87
2023-01-08T02:30:07.415Z,0.76
2023-01-08T02:33:07.432Z,0.82
2023-01-08T02:36:45.452Z,0.84
2023-01-08T02:40:04.450Z,0.91
2023-01-08T02:43:24.386Z,0.97
2023-01-08T02:46:27.469Z,1.00
2023-01-08T02:49:27.402Z,0.95
2023-01-08T02:52:28.419Z,1.00
2023-01-08T02:55:29.455Z,0.96
2023-01-08T02:58:29.439Z,0.98
2023-01-08T03:01:30.506Z,0.98
2023-01-08T03:04:35.473Z,1.00
2023-01-08T03:07:35.422Z,1.01
2023-01-08T03:10:36.393Z,1.01
2023-01-08T03:13:44.414Z,1.02
2023-01-08T03:16:49.510Z,1.06
2023-01-08T03:19:56.432Z,1.09
2023-01-08T03:22:58.406Z,1.13
2023-01-08T03:26:00.441Z,1.12
2023-01-08T03:29:03.408Z,1.18
2023-01-08T03:32:04.400Z,1.12
2023-01-08T03:35:06.408Z,1.01
2023-01-08T03:38:11.400Z,1.13
2023-01-08T03:41:15.402Z,1.15
2023-01-08T03:44:15.420Z,1.15
2023-01-08T03:47:16.427Z,1.07
2023-01-08T03:50:18.450Z,1.14
2023-01-08T03:53:18.433Z,1.09
2023-01-08T03:56:18.414Z,1.12
2023-01-08T03:59:18.402Z,1.08
2023-01-08T04:02:18.543Z,1.02
2023-01-08T04:05:18.409Z,0.98
2023-01-08T04:08:18.442Z,0.91
2023-01-08T04:11:18.448Z,0.85
2023-01-08T04:14:18.430Z,0.94
2023-01-08T04:17:19.458Z,1.02
2023-01-08T04:20:19.410Z,1.07
2023-01-08T04:23:19.410Z,1.07
2023-01-08T04:26:20.400Z,1.14
2023-01-08T04:29:20.457Z,1.30
2023-01-08T04:32:20.450Z,1.36
2023-01-08T04:35:20.429Z,1.44
2023-01-08T04:38:20.411Z,1.45
2023-01-08T04:41:20.383Z,1.49
2023-01-08T04:44:20.459Z,1.53
2023-01-08T04:47:20.380Z,1.55
2023-01-08T04:50:20.406Z,1.60
2023-01-08T04:53:20.416Z,1.61
2023-01-08T04:56:24.437Z,1.65
2023-01-08T04:59:24.402Z,1.67
2023-01-08T05:02:24.567Z,1.65
2023-01-08T05:05:24.437Z,1.67
2023-01-08T05:08:24.395Z,1.70
2023-01-08T05:11:17.441Z,1.70
2023-01-08T05:14:06.389Z,1.65
2023-01-08T05:17:06.390Z,1.66
2023-01-08T05:20:06.427Z,1.62
2023-01-08T05:23:06.429Z,1.66
2023-01-08T05:26:06.413Z,1.59
2023-01-08T05:29:06.410Z,1.53
2023-01-08T05:32:06.393Z,1.49
2023-01-08T05:35:06.403Z,1.50
2023-01-08T05:38:06.401Z,1.32
2023-01-08T05:41:06.439Z,1.38
2023-01-08T05:44:06.444Z,1.40
2023-01-08T05:47:09.416Z,1.36
2023-01-08T05:50:09.435Z,1.31
2023-01-08T05:53:09.395Z,1.34
2023-01-08T05:56:14.438Z,1.37
2023-01-08T05:59:14.436Z,1.40
2023-01-08T06:02:14.412Z,1.47
2023-01-08T06:05:14.388Z,1.52
2023-01-08T06:08:14.405Z,1.59
2023-01-08T06:11:19.433Z,1.65
2023-01-08T06:14:19.413Z,1.69
2023-01-08T06:17:19.387Z,1.72
2023-01-08T06:20:19.391Z,1.77
2023-01-08T06:23:19.405Z,1.79
2023-01-08T06:26:19.445Z,1.83
2023-01-08T06:29:19.448Z,1.83
2023-01-08T06:32:19.420Z,1.79
2023-01-08T06:35:19.399Z,1.78
2023-01-08T06:38:19.508Z,1.65
2023-01-08T06:41:21.382Z,1.82
2023-01-08T06:44:21.437Z,1.83
2023-01-08T06:47:21.411Z,1.70
2023-01-08T06:50:21.390Z,1.90
2023-01-08T06:53:21.400Z,1.91
2023-01-08T06:56:21.389Z,1.95
2023-01-08T06:59:21.424Z,1.97
2023-01-08T07:02:26.548Z,1.99
2023-01-08T07:05:26.428Z,2.04
2023-01-08T07:08:30.424Z,2.07
2023-01-08T07:11:30.429Z,2.09
2023-01-08T07:14:30.429Z,2.13
2023-01-08T07:17:30.413Z,2.16
2023-01-08T07:20:30.400Z,2.22
2023-01-08T07:23:30.397Z,2.26
2023-01-08T07:26:23.390Z,2.29
2023-01-08T07:29:16.397Z,2.26
2023-01-08T07:32:16.401Z,2.28
2023-01-08T07:35:16.471Z,2.27
2023-01-08T07:38:16.406Z,2.28
2023-01-08T07:41:16.386Z,2.29
2023-01-08T07:44:16.408Z,2.34
2023-01-08T07:47:16.399Z,2.36
2023-01-08T07:50:16.383Z,2.38
2023-01-08T07:53:09.501Z,2.41
2023-01-08T07:56:16.381Z,2.40
2023-01-08T07:59:16.420Z,2.47
2023-01-08T08:02:16.532Z,2.52
2023-01-08T08:05:16.399Z,2.58
2023-01-08T08:08:21.384Z,2.60
2023-01-08T08:11:21.421Z,2.56
2023-01-08T08:14:21.408Z,2.51
2023-01-08T08:17:21.397Z,2.57
2023-01-08T08:20:21.413Z,2.58
2023-01-08T08:23:24.391Z,2.54
2023-01-08T08:26:24.383Z,2.60
2023-01-08T08:29:24.400Z,2.57
2023-01-08T08:32:24.395Z,2.55
2023-01-08T08:35:24.381Z,2.57
2023-01-08T08:38:24.430Z,2.63
2023-01-08T08:41:24.389Z,2.67
2023-01-08T08:44:24.395Z,2.67
2023-01-08T08:47:24.412Z,2.70
2023-01-08T08:50:24.428Z,2.75
2023-01-08T08:53:25.877Z,2.78
2023-01-08T08:56:27.381Z,2.67
2023-01-08T08:59:27.393Z,2.75
2023-01-08T09:02:27.534Z,2.81
2023-01-08T09:05:28.390Z,2.87
2023-01-08T09:08:28.380Z,2.90
2023-01-08T09:11:28.421Z,2.93
2023-01-08T09:14:28.381Z,2.96
2023-01-08T09:17:28.418Z,2.97
2023-01-08T09:20:28.414Z,3.02
2023-01-08T09:23:28.418Z,3.06
2023-01-08T09:26:28.414Z,3.10
2023-01-08T09:29:28.388Z,3.10
2023-01-08T09:32:28.436Z,3.15
2023-01-08T09:35:28.376Z,3.09
2023-01-08T09:38:21.481Z,3.22
2023-01-08T09:41:24.389Z,3.26
2023-01-08T09:44:28.394Z,3.29
2023-01-08T09:47:40.311Z,3.35
2023-01-08T09:50:41.384Z,3.38
2023-01-08T09:53:41.385Z,3.40
2023-01-08T09:56:42.387Z,3.22
2023-01-08T09:59:42.407Z,3.45
2023-01-08T10:02:42.545Z,3.44
2023-01-08T10:05:43.370Z,3.43
2023-01-08T10:08:43.424Z,3.38
2023-01-08T10:11:52.409Z,3.56
2023-01-08T10:14:56.432Z,3.63
2023-01-08T10:18:17.410Z,3.59
2023-01-08T10:21:17.455Z,3.53
2023-01-08T10:24:17.407Z,3.69
2023-01-08T10:27:27.380Z,3.71
2023-01-08T10:30:53.411Z,3.78
2023-01-08T10:34:01.427Z,3.77
2023-01-08T10:37:01.406Z,3.66
2023-01-08T10:40:01.423Z,3.73
2023-01-08T10:43:02.387Z,3.80
2023-01-08T10:46:13.381Z,3.75
2023-01-08T10:49:15.400Z,3.85
2023-01-08T10:52:15.365Z,3.88
2023-01-08T10:55:30.429Z,3.84
2023-01-08T10:58:30.421Z,4.00
2023-01-08T11:01:39.481Z,4.01
2023-01-08T11:04:39.366Z,4.06
2023-01-08T11:07:29.527Z,4.12
2023-01-08T11:10:28.398Z,4.18
2023-01-08T11:13:17.388Z,4.24
2023-01-08T11:16:22.428Z,4.23
2023-01-08T11:19:33.387Z,4.26
2023-01-08T11:22:37.377Z,4.33
2023-01-08T11:25:41.426Z,4.39
2023-01-08T11:28:53.402Z,4.39
2023-01-08T11:31:55.474Z,4.43
2023-01-08T11:35:07.405Z,4.45
2023-01-08T11:38:14.397Z,4.49
2023-01-08T11:41:25.513Z,4.54
2023-01-08T11:44:47.387Z,4.58
2023-01-08T11:48:18.431Z,4.58
2023-01-08T11:51:56.419Z,4.66
2023-01-08T11:54:56.406Z,4.72
2023-01-08T11:58:05.364Z,4.75
2023-01-08T12:01:16.493Z,4.78
2023-01-08T12:04:38.403Z,4.82
2023-01-08T12:08:04.404Z,4.87
2023-01-08T12:11:26.450Z,4.90
2023-01-08T12:14:51.373Z,4.95
2023-01-08T12:18:05.413Z,4.96
2023-01-08T12:21:17.406Z,5.04
2023-01-08T12:24:34.404Z,5.05
2023-01-08T12:28:11.377Z,5.05
2023-01-08T12:32:01.523Z,5.08
2023-01-08T12:35:17.363Z,5.13
2023-01-08T12:38:36.406Z,5.18
2023-01-08T12:41:37.372Z,5.22
2023-01-08T12:44:40.434Z,5.20
2023-01-08T12:47:43.413Z,5.36
2023-01-08T12:50:46.381Z,5.38
2023-01-08T12:53:54.401Z,5.36
2023-01-08T12:56:59.423Z,5.42
2023-01-08T13:00:18.397Z,5.45
2023-01-08T13:03:21.410Z,5.47
2023-01-08T13:06:28.366Z,5.51
2023-01-08T13:09:36.367Z,5.53
2023-01-08T13:12:47.406Z,5.57
2023-01-08T13:15:48.362Z,5.58
2023-01-08T13:18:48.421Z,5.60
2023-01-08T13:21:50.362Z,5.60
2023-01-08T13:24:51.422Z,5.65
2023-01-08T13:27:51.402Z,5.57
2023-01-08T13:30:55.377Z,5.69
2023-01-08T13:33:55.355Z,5.69
2023-01-08T13:36:55.384Z,5.71
2023-01-08T13:39:55.407Z,5.72
2023-01-08T13:42:55.374Z,5.71
2023-01-08T13:45:55.379Z,5.72
2023-01-08T13:49:37.415Z,5.73
2023-01-08T13:52:41.374Z,5.73
2023-01-08T13:55:41.380Z,5.73
2023-01-08T13:58:50.362Z,5.73
2023-01-08T14:01:50.473Z,5.70
2023-01-08T14:04:50.384Z,5.68
2023-01-08T14:07:52.361Z,5.68
2023-01-08T14:10:52.363Z,5.66
2023-01-08T14:13:52.417Z,5.61
2023-01-08T14:16:52.429Z,5.66
2023-01-08T14:19:54.403Z,5.66
2023-01-08T14:22:55.433Z,5.64
2023-01-08T14:25:55.407Z,5.63
2023-01-08T14:29:04.416Z,5.63
2023-01-08T14:32:07.380Z,5.55
2023-01-08T14:35:07.371Z,5.67
2023-01-08T14:38:07.404Z,5.67
2023-01-08T14:41:16.388Z,5.67
2023-01-08T14:44:20.906Z,5.68
2023-01-08T14:47:30.410Z,5.68
2023-01-08T14:50:43.389Z,5.66
2023-01-08T14:53:49.381Z,5.67
2023-01-08T14:56:49.366Z,5.68
2023-01-08T14:59:49.371Z,5.67
2023-01-08T15:02:49.453Z,5.67
2023-01-08T15:05:49.377Z,5.60
2023-01-08T15:08:57.576Z,5.70
2023-01-08T15:12:13.407Z,5.69
2023-01-08T15:15:32.362Z,5.70
2023-01-08T15:18:32.395Z,5.69
2023-01-08T15:21:33.374Z,5.65
2023-01-08T15:24:48.383Z,5.73
2023-01-08T15:27:48.377Z,5.74
2023-01-08T15:30:53.389Z,5.69
2023-01-08T15:33:53.375Z,5.74
2023-01-08T15:36:54.362Z,5.74
2023-01-08T15:39:54.413Z,5.74
2023-01-08T15:43:12.378Z,5.71
2023-01-08T15:46:12.397Z,5.76
2023-01-08T15:49:12.399Z,5.78
2023-01-08T15:52:12.373Z,5.68
2023-01-08T15:55:15.403Z,5.87
2023-01-08T15:58:15.393Z,5.88
2023-01-08T16:01:15.496Z,5.92
2023-01-08T16:04:15.397Z,5.89
2023-01-08T16:07:15.388Z,5.90
2023-01-08T16:10:15.359Z,5.87
2023-01-08T16:13:15.464Z,5.90
2023-01-08T16:16:20.382Z,5.80
2023-01-08T16:19:20.400Z,5.81
2023-01-08T16:22:20.361Z,5.81
2023-01-08T16:25:21.435Z,5.76
2023-01-08T16:28:21.397Z,5.74
2023-01-08T16:31:21.426Z,5.72
2023-01-08T16:34:21.384Z,5.72
2023-01-08T16:37:21.369Z,5.71
2023-01-08T16:40:21.406Z,5.73
2023-01-08T16:43:23.360Z,5.71
2023-01-08T16:46:25.370Z,5.71
2023-01-08T16:49:25.401Z,5.73
2023-01-08T16:52:25.395Z,5.77
2023-01-08T16:55:25.362Z,5.81
2023-01-08T16:58:25.417Z,5.84
2023-01-08T17:01:25.412Z,5.85
2023-01-08T17:04:25.374Z,5.86
2023-01-08T17:07:27.396Z,5.90
2023-01-08T17:10:27.331Z,5.92
2023-01-08T17:13:27.424Z,5.93
2023-01-08T17:16:28.450Z,5.93
2023-01-08T17:19:29.375Z,5.72
2023-01-08T17:22:29.361Z,5.86
2023-01-08T17:25:29.353Z,5.81
2023-01-08T17:28:31.381Z,5.80
2023-01-08T17:31:32.389Z,5.80
2023-01-08T17:34:32.368Z,5.85
2023-01-08T17:37:32.396Z,5.81
2023-01-08T17:40:32.378Z,5.78
2023-01-08T17:43:32.373Z,5.69
2023-01-08T17:46:32.367Z,5.79
2023-01-08T17:49:32.351Z,5.81
2023-01-08T17:52:32.391Z,5.80
2023-01-08T17:55:32.349Z,6.07
2023-01-08T17:58:32.398Z,6.17
2023-01-08T18:01:32.459Z,6.20
2023-01-08T18:04:32.386Z,6.35
2023-01-08T18:07:32.368Z,6.36
2023-01-08T18:10:32.410Z,6.43
2023-01-08T18:13:32.398Z,6.49
2023-01-08T18:16:32.427Z,6.48
2023-01-08T18:19:32.390Z,6.51
2023-01-08T18:22:32.373Z,6.46
2023-01-08T18:25:32.402Z,6.64
2023-01-08T18:28:32.364Z,6.65
2023-01-08T18:31:32.452Z,6.64
2023-01-08T18:34:32.383Z,6.67
2023-01-08T18:37:32.388Z,6.69
2023-01-08T18:40:32.353Z,6.71
2023-01-08T18:43:32.397Z,6.75
2023-01-08T18:46:32.404Z,6.74
2023-01-08T18:49:34.409Z,6.71
2023-01-08T18:52:35.362Z,6.71
2023-01-08T18:55:35.365Z,6.67
2023-01-08T18:58:35.394Z,6.81
2023-01-08T19:01:35.532Z,6.81
2023-01-08T19:04:35.363Z,6.77
2023-01-08T19:07:35.345Z,6.79
2023-01-08T19:10:35.373Z,6.80
2023-01-08T19:13:35.345Z,6.79
2023-01-08T19:16:35.413Z,6.77
2023-01-08T19:19:35.375Z,6.81
2023-01-08T19:22:35.416Z,6.79
2023-01-08T19:25:35.345Z,6.89
2023-01-08T19:28:35.399Z,6.88
2023-01-08T19:31:35.403Z,6.95
2023-01-08T19:34:35.371Z,7.00
2023-01-08T19:37:35.357Z,7.08
2023-01-08T19:40:35.367Z,7.11
2023-01-08T19:43:50.360Z,7.14
2023-01-08T19:46:50.461Z,7.23
2023-01-08T19:49:54.365Z,7.23
2023-01-08T19:52:54.346Z,7.26
2023-01-08T19:55:54.364Z,7.24
2023-01-08T19:58:54.398Z,7.28
2023-01-08T20:01:54.498Z,7.31
2023-01-08T20:04:54.349Z,7.38
2023-01-08T20:07:54.391Z,7.42
2023-01-08T20:10:54.349Z,7.34
2023-01-08T20:13:54.413Z,7.55
2023-01-08T20:16:54.373Z,7.65
2023-01-08T20:19:49.466Z,7.74
2023-01-08T20:22:37.379Z,7.65
2023-01-08T20:25:37.390Z,7.78
2023-01-08T20:28:37.393Z,7.74
2023-01-08T20:31:40.409Z,7.76
2023-01-08T20:34:40.366Z,7.78
2023-01-08T20:37:41.353Z,7.74
2023-01-08T20:40:41.401Z,7.73
2023-01-08T20:43:41.356Z,7.75
2023-01-08T20:46:42.424Z,7.77
2023-01-08T20:49:42.351Z,7.77
2023-01-08T20:52:45.370Z,7.59
2023-01-08T20:55:45.382Z,7.45
2023-01-08T20:58:49.370Z,7.38
2023-01-08T21:01:49.435Z,7.23
2023-01-08T21:04:50.358Z,7.18
2023-01-08T21:07:50.392Z,7.04
2023-01-08T21:10:50.356Z,7.10
2023-01-08T21:13:50.400Z,7.06
2023-01-08T21:16:51.348Z,7.03
2023-01-08T21:19:51.379Z,6.85
2023-01-08T21:22:51.355Z,6.87
2023-01-08T21:25:51.362Z,6.90
2023-01-08T21:28:52.362Z,6.82
2023-01-08T21:31:52.410Z,6.84
2023-01-08T21:34:52.402Z,6.80
2023-01-08T21:37:52.361Z,6.73
2023-01-08T21:40:52.388Z,6.72
2023-01-08T21:44:10.361Z,6.86
2023-01-08T21:47:14.398Z,6.89
2023-01-08T21:50:14.354Z,6.91
2023-01-08T21:53:34.183Z,6.99
2023-01-08T21:56:35.340Z,7.12
2023-01-08T21:59:35.357Z,7.07
2023-01-08T22:02:36.381Z,7.26
2023-01-08T22:05:36.387Z,7.44
2023-01-08T22:08:37.356Z,7.52
2023-01-08T22:11:37.379Z,7.50
2023-01-08T22:14:37.393Z,7.58
2023-01-08T22:17:38.363Z,7.62
2023-01-08T22:20:38.389Z,7.46
2023-01-08T22:23:38.406Z,7.35
2023-01-08T22:26:39.413Z,7.25
2023-01-08T22:29:39.365Z,7.22
2023-01-08T22:32:39.372Z,7.23
2023-01-08T22:35:39.341Z,7.27
2023-01-08T22:38:39.362Z,7.29
2023-01-08T22:41:39.388Z,7.18
2023-01-08T22:44:39.399Z,7.21
2023-01-08T22:47:39.367Z,7.46
2023-01-08T22:50:39.361Z,7.49
2023-01-08T22:53:39.375Z,7.56
2023-01-08T22:56:40.395Z,7.66
2023-01-08T22:59:40.373Z,7.73
2023-01-08T23:02:40.411Z,7.67
2023-01-08T23:05:40.357Z,7.70
2023-01-08T23:08:40.373Z,7.74
2023-01-08T23:11:40.387Z,7.57
2023-01-08T23:14:40.333Z,7.49
2023-01-08T23:17:51.551Z,7.43
2023-01-08T23:20:51.375Z,7.55
2023-01-08T23:23:51.396Z,7.63
2023-01-08T23:26:51.342Z,7.55
2023-01-08T23:29:51.398Z,7.66
2023-01-08T23:32:51.386Z,7.58
2023-01-08T23:35:51.403Z,7.67
2023-01-08T23:38:51.360Z,7.73
2023-01-08T23:41:51.371Z,7.83
2023-01-08T23:44:51.397Z,7.78
2023-01-08T23:47:51.390Z,7.85
2023-01-08T23:50:51.401Z,7.82
2023-01-08T23:53:51.346Z,7.82
2023-01-08T23:56:51.401Z,8.03
2023-01-08T23:59:51.393Z,7.92
